• Join FlightAware (Why Join?)
  • Login
  • US Flag 
04:11AM EDT


 

Airport Tracker/Info


-or-


 

Live Flight TrackerFlight Track Log ✈ EJA662 ✈ 12-May-2014 ✈ CYKZ - CYHU

Flight Track Log - Related Links

Times and Time Zones

All times are in EDT time to prevent confusion due to time zone crossing. See the EJA662 flight status page for this flight to view local times or setup timezone preferences in your user account.

Time Position Orientation Groundspeed Altitude Reporting Facility
EDT Latitude Longitude Course Direction KTS MPH feet Rate Location/Type
05:59PM 43.8333 -79.2833 72° East 170 196 2,900  Level Toronto Center
06:00PM 43.8333 -79.2000 90° East 230 265 3,000 600 Climbing Toronto Center
06:01PM 43.8333 -79.1167 90° East 230 265 4,200 1,200 Climbing Toronto Center
06:02PM 43.8333 -79.0333 90° East 240 276 5,500 2,340 Climbing Toronto Center
06:03PM 43.8333 -78.9167 90° East 260 299 8,900 3,480 Climbing Toronto Center
06:04PM 44.0596 -78.5038 72° East  Level FlightAware Approximate
06:04PM 43.8500 -78.8000 79° East 290 334 12,500  Level Toronto Center
06:05PM 43.8833 -78.7000 65° Northeast 290 334 15,100 2,400 Climbing Toronto Center
06:06PM 43.9167 -78.5833 68° East 310 357 17,400 2,100 Climbing Toronto Center
06:07PM 43.9667 -78.5000 50° Northeast 330 380 19,300 1,860 Climbing Toronto Center
06:08PM 44.0000 -78.3833 68° East 340 391 21,200 1,980 Climbing Toronto Center
06:09PM 44.0500 -78.2333 65° Northeast 360 414 23,300 1,860 Climbing Toronto Center
06:10PM 44.0833 -78.1167 68° East 370 426 25,000 840 Climbing Toronto Center
06:11PM 44.1500 -77.9833 55° Northeast 400 460 25,000  Level Toronto Center
06:12PM 44.2000 -77.8167 67° East 440 506 25,000  Level Toronto Center
06:13PM 44.2500 -77.6500 67° East 450 518 25,000  Level Toronto Center
06:14PM 44.2833 -77.4833 74° East 450 518 25,000  Level Toronto Center
06:15PM 44.3167 -77.3333 73° East 450 518 25,000  Level Toronto Center
06:16PM 44.3667 -77.1667 67° East 450 518 25,000  Level Toronto Center
06:17PM 44.4167 -77.0000 67° East 450 518 25,000  Level Toronto Center
06:18PM 44.4667 -76.8333 67° East 450 518 25,000  Level Toronto Center
06:19PM 44.5000 -76.6667 74° East 450 518 25,000  Level Toronto Center
06:20PM 44.5333 -76.5000 74° East 450 518 25,000  Level Toronto Center
06:21PM 44.5833 -76.3333 67° East 460 529 25,000  Level Toronto Center
06:22PM 44.6333 -76.1667 67° East 460 529 25,000  Level Toronto Center
06:23PM 44.6333 -75.9833 90° East 470 541 25,000  Level Toronto Center
06:24PM 44.6333 -75.8167 90° East 470 541 25,000 -600 Level Toronto Center
06:25PM 44.6667 -75.6167 77° East 460 529 23,800 -1,440 Descending Toronto Center
06:26PM 44.7000 -75.4833 71° East 450 518 22,200 -1,680 Descending Toronto Center
06:27PM 44.7500 -75.3167 67° East 410 472 20,500 -1,620 Descending Toronto Center
06:28PM 44.7833 -75.1667 73° East 410 472 19,000 -1,560 Descending Toronto Center
06:29PM 44.8167 -75.0000 74° East 410 472 17,400 -1,560 Descending Toronto Center
06:30PM 44.8500 -74.8500 73° East 400 460 15,900 -1,560 Descending Toronto Center
06:31PM 44.8833 -74.7167 71° East 390 449 14,300 -1,500 Descending Toronto Center
06:32PM 44.9167 -74.5667 73° East 380 437 12,900 -1,500 Descending Toronto Center
06:33PM 44.9500 -74.4500 68° East 370 426 11,400 -1,380 Descending Toronto Center
06:34PM 44.9667 -74.3333 79° East 340 391 10,200 -1,260 Descending Toronto Center
06:35PM 45.0000 -74.2000 70° East 300 345 8,900 -1,380 Descending Toronto Center
06:36PM 45.0333 -74.1167 60° Northeast 300 345 7,500 -1,200 Descending Toronto Center
06:37PM 45.0833 -73.9833 62° Northeast 290 334 6,000 -1,020 Descending Montreal Center
06:38PM 45.1000 -73.8833 77° East 250 288 5,100 -1,020 Descending Montreal Center
06:39PM 45.1333 -73.7833 65° Northeast 220 253 4,000 -1,020 Descending Montreal Center
06:40PM 45.1500 -73.7167 70° East 210 242 3,100 -540 Descending Montreal Center
06:41PM 45.1833 -73.6667 47° Northeast 200 230 3,000 -60 Descending Montreal Center
06:42PM 45.2333 -73.6333 25° Northeast 200 230 3,000  Level Montreal Center
06:43PM 45.3000 -73.6167 10° North 200 230 3,000  Level Montreal Center
06:44PM 45.3500 -73.6000 13° North 200 230 3,100 -60 Climbing Montreal Center
06:45PM 45.4000 -73.5833 13° North 180 207 2,900 -600 Descending Montreal Center
06:46PM 45.4333 -73.5167 55° Northeast 180 207 1,900 -900 Descending Montreal Center
06:47PM 45.4667 -73.4833 35° Northeast 150 173 1,200 -600 Descending Montreal Center
06:48PM 45.4833 -73.4333 65° Northeast 110 127 700 -60 Descending Montreal Center
06:49PM 45.5167 -73.4333 360° North 310 357 1,100 360 Climbing Montreal Center